createdAt,value
2022-09-14T00:01:26.857Z,99.90
2022-09-14T00:03:55.743Z,99.90
2022-09-14T00:06:22.996Z,99.90
2022-09-14T00:08:52.428Z,99.90
2022-09-14T00:11:20.145Z,99.90
2022-09-14T00:13:47.761Z,99.90
2022-09-14T00:16:17.994Z,99.90
2022-09-14T00:18:45.236Z,99.90
2022-09-14T00:21:13.110Z,99.90
2022-09-14T00:23:42.018Z,99.90
2022-09-14T00:26:17.934Z,99.90
2022-09-14T00:28:47.223Z,99.90
2022-09-14T00:31:14.972Z,99.90
2022-09-14T00:33:43.343Z,99.90
2022-09-14T00:36:13.156Z,99.90
2022-09-14T00:38:40.430Z,99.90
2022-09-14T00:41:10.725Z,99.90
2022-09-14T00:44:02.979Z,99.90
2022-09-14T00:46:32.203Z,99.90
2022-09-14T00:49:01.591Z,99.90
2022-09-14T00:51:32.918Z,99.90
2022-09-14T00:54:02.512Z,99.90
2022-09-14T00:56:29.771Z,99.90
2022-09-14T00:58:58.513Z,99.90
2022-09-14T01:01:26.895Z,99.90
2022-09-14T01:03:53.603Z,99.90
2022-09-14T05:02:16.132Z,99.90
2022-09-14T05:04:43.215Z,99.90
2022-09-14T05:07:10.222Z,99.90
2022-09-14T05:09:37.147Z,99.90
2022-09-14T05:12:03.986Z,99.90
2022-09-14T05:14:30.813Z,99.90
2022-09-14T05:17:01.295Z,99.90
2022-09-14T05:19:28.129Z,99.90
2022-09-14T05:21:55.005Z,99.90
2022-09-14T05:24:21.911Z,99.90
2022-09-14T05:26:52.063Z,99.90
2022-09-14T05:32:28.530Z,99.90
2022-09-14T05:34:55.794Z,99.90
2022-09-14T05:37:22.641Z,99.90
2022-09-14T05:39:49.655Z,99.90
2022-09-14T05:42:16.660Z,99.90
2022-09-14T05:44:43.488Z,99.90
2022-09-14T05:47:10.899Z,99.90
2022-09-14T05:49:37.753Z,99.90
2022-09-14T05:52:05.252Z,99.90
2022-09-14T05:54:32.070Z,99.90
2022-09-14T05:56:58.896Z,99.90
2022-09-14T05:59:25.793Z,99.90
2022-09-14T06:01:52.722Z,99.90
2022-09-14T06:04:19.906Z,99.90
2022-09-14T06:07:01.408Z,99.90
2022-09-14T06:09:33.824Z,99.90
2022-09-14T06:15:29.252Z,99.90
2022-09-14T06:17:56.023Z,99.90
2022-09-14T06:20:22.744Z,99.90
2022-09-14T06:30:26.558Z,99.90
2022-09-14T06:32:53.381Z,99.90
2022-09-14T06:35:20.983Z,99.90
2022-09-14T06:38:45.666Z,99.90
2022-09-14T06:41:14.770Z,99.90
2022-09-14T06:43:43.021Z,99.90
2022-09-14T06:46:12.510Z,99.90
2022-09-14T06:48:43.637Z,99.90
2022-09-14T06:52:17.307Z,99.90
2022-09-14T06:54:44.009Z,99.90
2022-09-14T06:57:10.715Z,99.90
2022-09-14T06:59:37.414Z,99.90
2022-09-14T07:02:04.400Z,99.90
2022-09-14T07:04:31.331Z,99.90
2022-09-14T07:06:58.165Z,99.90
2022-09-14T07:09:25.655Z,99.90
2022-09-14T07:11:52.496Z,99.90
2022-09-14T07:14:20.169Z,99.90
2022-09-14T07:16:46.990Z,99.90
2022-09-14T07:19:15.341Z,99.90
2022-09-14T07:21:42.489Z,99.90
2022-09-14T07:24:10.486Z,99.90
2022-09-14T07:26:44.484Z,99.90
2022-09-14T07:29:17.954Z,99.90
2022-09-14T07:31:48.024Z,99.90
2022-09-14T07:34:15.255Z,99.90
2022-09-14T07:36:42.878Z,99.90
2022-09-14T07:39:12.707Z,99.90
2022-09-14T07:41:39.898Z,99.90
2022-09-14T07:44:08.339Z,99.90
2022-09-14T07:46:40.355Z,99.90
2022-09-14T07:49:08.379Z,99.90
2022-09-14T07:51:36.777Z,99.90
2022-09-14T07:54:05.560Z,99.90
2022-09-14T07:56:32.891Z,99.90
2022-09-14T07:59:17.666Z,99.90
2022-09-14T08:01:46.912Z,99.90
2022-09-14T08:04:13.798Z,99.90
2022-09-14T08:06:40.697Z,99.90
2022-09-14T08:09:11.367Z,99.90
2022-09-14T08:11:38.746Z,99.90
2022-09-14T08:14:09.903Z,99.90
2022-09-14T08:16:38.547Z,99.90
2022-09-14T08:19:07.678Z,99.90
2022-09-14T08:21:35.582Z,99.90
2022-09-14T08:24:04.225Z,99.90
2022-09-14T08:26:31.849Z,99.90
2022-09-14T08:29:02.079Z,99.90
2022-09-14T08:31:29.576Z,99.90
2022-09-14T08:33:59.048Z,99.90
2022-09-14T08:36:28.442Z,99.90
2022-09-14T08:38:55.375Z,99.90
2022-09-14T08:41:37.859Z,99.90
2022-09-14T08:44:29.106Z,99.90
2022-09-14T08:46:58.906Z,99.90
2022-09-14T08:49:53.650Z,99.90
2022-09-14T08:52:38.338Z,99.90
2022-09-14T08:55:41.758Z,99.90
2022-09-14T08:58:14.833Z,99.90
2022-09-14T09:00:44.882Z,99.50
2022-09-14T09:03:23.610Z,99.70
2022-09-14T09:06:10.151Z,99.80
2022-09-14T09:08:48.220Z,99.30
2022-09-14T09:11:20.623Z,98.40
2022-09-14T09:13:50.813Z,98.50
2022-09-14T09:16:23.023Z,98.50
2022-09-14T09:18:54.583Z,97.30
2022-09-14T09:21:43.695Z,98.30
2022-09-14T09:24:37.206Z,98.10
2022-09-14T09:27:14.104Z,97.40
2022-09-14T09:29:41.117Z,97.30
2022-09-14T09:32:26.255Z,97.90
2022-09-14T09:34:53.319Z,98.20
2022-09-14T09:37:23.269Z,97.30
2022-09-14T09:39:50.539Z,97.90
2022-09-14T09:42:23.386Z,97.60
2022-09-14T09:45:03.140Z,98.20
2022-09-14T09:47:34.983Z,98.40
2022-09-14T09:50:15.697Z,97.80
2022-09-14T09:52:55.080Z,98.50
2022-09-14T09:55:26.468Z,98.10
2022-09-14T09:57:54.423Z,97.90
2022-09-14T10:00:29.803Z,97.50
2022-09-14T10:02:59.047Z,97.20
2022-09-14T10:05:32.459Z,96.90
2022-09-14T10:08:07.017Z,96.10
2022-09-14T10:10:40.395Z,96.50
2022-09-14T10:13:28.948Z,95.50
2022-09-14T10:16:13.946Z,96.10
2022-09-14T10:18:49.465Z,96.20
2022-09-14T10:21:21.590Z,96.10
2022-09-14T10:24:22.132Z,96.00
2022-09-14T10:26:49.024Z,96.10
2022-09-14T10:29:21.327Z,96.50
2022-09-14T10:31:49.860Z,96.20
2022-09-14T10:34:20.627Z,96.90
2022-09-14T10:36:58.823Z,96.50
2022-09-14T10:39:39.230Z,97.20
2022-09-14T10:42:32.664Z,96.50
2022-09-14T10:45:02.028Z,96.40
2022-09-14T10:47:45.135Z,96.80
2022-09-14T10:50:41.166Z,96.80
2022-09-14T10:53:23.837Z,96.80
2022-09-14T10:56:03.806Z,97.40
2022-09-14T10:58:42.905Z,96.80
2022-09-14T11:01:23.727Z,96.90
2022-09-14T11:03:56.232Z,97.40
2022-09-14T11:06:58.216Z,97.10
2022-09-14T11:09:27.938Z,97.00
2022-09-14T11:11:54.543Z,96.90
2022-09-14T11:14:50.266Z,96.70
2022-09-14T11:17:31.948Z,97.60
2022-09-14T11:20:15.868Z,96.70
2022-09-14T11:22:45.508Z,96.00
2022-09-14T11:25:34.679Z,96.20
2022-09-14T11:28:07.027Z,95.90
2022-09-14T11:30:41.388Z,95.50
2022-09-14T11:33:31.524Z,95.70
2022-09-14T11:36:24.015Z,95.90
2022-09-14T11:39:06.868Z,95.20
2022-09-14T11:41:46.947Z,95.00
2022-09-14T11:44:24.918Z,94.70
2022-09-14T11:47:06.891Z,95.50
2022-09-14T11:49:59.090Z,94.90
2022-09-14T11:52:29.844Z,95.20
2022-09-14T11:54:57.510Z,94.60
2022-09-14T11:57:33.326Z,95.20
2022-09-14T12:00:09.963Z,94.80
2022-09-14T12:02:36.915Z,94.80
2022-09-14T12:05:06.594Z,95.00
2022-09-14T12:07:57.777Z,95.10
2022-09-14T12:10:24.880Z,95.60
2022-09-14T12:12:55.838Z,95.50
2022-09-14T12:15:23.046Z,96.00
2022-09-14T12:17:52.017Z,95.70
2022-09-14T12:20:29.361Z,95.80
2022-09-14T12:23:27.943Z,96.30
2022-09-14T12:26:23.522Z,96.60
2022-09-14T12:28:53.648Z,97.00
2022-09-14T12:31:58.139Z,97.30
2022-09-14T12:34:32.014Z,97.20
2022-09-14T12:37:11.302Z,97.60
2022-09-14T12:39:38.819Z,98.00
2022-09-14T12:42:29.791Z,96.90
2022-09-14T12:44:56.575Z,97.30
2022-09-14T12:47:27.797Z,96.60
2022-09-14T12:50:19.349Z,96.90
2022-09-14T12:53:15.339Z,97.00
2022-09-14T12:55:56.874Z,96.90
2022-09-14T12:58:55.957Z,97.30
2022-09-14T13:01:41.263Z,97.40
2022-09-14T13:04:16.335Z,97.20
2022-09-14T13:06:45.466Z,97.60
2022-09-14T13:09:24.170Z,97.40
2022-09-14T13:12:02.843Z,97.80
2022-09-14T13:14:44.602Z,97.60
2022-09-14T13:17:14.515Z,97.40
2022-09-14T13:19:41.879Z,97.00
2022-09-14T13:22:19.875Z,97.40
2022-09-14T13:24:48.664Z,96.30
2022-09-14T13:27:26.459Z,96.70
2022-09-14T13:30:05.561Z,96.80
2022-09-14T13:32:35.006Z,97.50
2022-09-14T13:35:05.719Z,97.10
2022-09-14T13:37:32.424Z,97.80
2022-09-14T13:39:59.890Z,97.40
2022-09-14T13:42:27.204Z,97.40
2022-09-14T13:44:54.123Z,97.90
2022-09-14T13:47:24.591Z,98.30
2022-09-14T13:49:53.411Z,97.90
2022-09-14T13:52:25.855Z,98.00
2022-09-14T13:55:23.695Z,97.60
2022-09-14T13:58:09.109Z,98.00
2022-09-14T14:00:56.689Z,98.20
2022-09-14T14:03:35.422Z,98.50
2022-09-14T14:06:25.191Z,98.80
2022-09-14T14:09:07.963Z,99.00
2022-09-14T14:11:45.626Z,99.00
2022-09-14T14:14:13.650Z,98.90
2022-09-14T14:16:40.633Z,99.10
2022-09-14T14:19:30.952Z,99.30
2022-09-14T14:22:28.930Z,99.80
2022-09-14T14:25:12.936Z,99.30
2022-09-14T14:27:46.157Z,99.20
2022-09-14T14:30:19.315Z,99.40
2022-09-14T14:32:53.541Z,99.60
2022-09-14T14:35:24.884Z,99.30
2022-09-14T14:37:52.112Z,99.20
2022-09-14T14:40:20.105Z,98.60
2022-09-14T14:42:48.989Z,98.60
2022-09-14T14:45:21.479Z,98.70
2022-09-14T14:47:52.604Z,98.00
2022-09-14T14:50:26.202Z,98.20
2022-09-14T14:52:53.563Z,97.90
2022-09-14T14:55:21.475Z,97.80
2022-09-14T14:57:49.714Z,98.20
2022-09-14T15:00:24.289Z,98.50
2022-09-14T15:02:51.613Z,98.70
2022-09-14T15:05:18.715Z,99.10
2022-09-14T15:07:45.751Z,99.60
2022-09-14T15:10:15.837Z,99.90
2022-09-14T15:12:43.211Z,99.90
2022-09-14T15:15:20.677Z,99.90
2022-09-14T15:17:47.695Z,99.90
2022-09-14T15:20:14.503Z,99.90
2022-09-14T15:22:42.326Z,99.90
2022-09-14T15:25:10.332Z,99.90
2022-09-14T15:27:37.252Z,99.90
2022-09-14T15:30:05.119Z,99.90
2022-09-14T15:32:31.839Z,99.90
2022-09-14T15:34:58.620Z,99.90
2022-09-14T15:37:25.458Z,99.90
2022-09-14T15:39:52.322Z,99.90
2022-09-14T15:42:19.269Z,99.90
2022-09-14T15:44:46.491Z,99.90
2022-09-14T15:47:17.409Z,99.90
2022-09-14T15:49:44.307Z,99.90
2022-09-14T15:52:11.994Z,99.90
2022-09-14T15:54:39.350Z,99.90
2022-09-14T15:57:10.243Z,99.90
2022-09-14T15:59:37.137Z,99.90
2022-09-14T16:02:04.431Z,99.90
2022-09-14T16:04:40.270Z,99.90
2022-09-14T16:07:11.079Z,99.90
2022-09-14T16:09:39.588Z,99.90
2022-09-14T16:12:07.888Z,99.90
2022-09-14T16:14:34.665Z,99.90
2022-09-14T16:17:01.705Z,99.90
2022-09-14T16:19:28.908Z,99.90
2022-09-14T16:21:55.763Z,99.90
2022-09-14T16:24:25.349Z,99.90
2022-09-14T16:26:52.553Z,99.90
2022-09-14T16:29:21.186Z,99.90
2022-09-14T16:31:48.608Z,99.90
2022-09-14T16:34:24.816Z,99.90
2022-09-14T16:36:52.125Z,99.90
2022-09-14T16:39:25.204Z,99.90
2022-09-14T16:41:54.084Z,99.90
2022-09-14T16:44:24.365Z,99.90
2022-09-14T16:46:52.116Z,99.90
2022-09-14T16:49:27.053Z,99.90
2022-09-14T16:51:54.967Z,99.90
2022-09-14T16:54:23.617Z,99.90
2022-09-14T16:56:50.747Z,99.90
2022-09-14T16:59:17.890Z,99.90
2022-09-14T17:01:49.731Z,99.90
2022-09-14T17:04:23.155Z,99.90
2022-09-14T17:06:51.640Z,99.90
2022-09-14T17:09:21.112Z,99.90
2022-09-14T17:11:48.602Z,99.90
2022-09-14T17:14:20.523Z,99.90
2022-09-14T17:16:48.207Z,99.90
2022-09-14T17:19:15.129Z,99.90
2022-09-14T17:21:43.676Z,99.90
2022-09-14T17:24:10.987Z,99.90
2022-09-14T17:26:38.233Z,99.90
2022-09-14T17:29:06.313Z,99.90
2022-09-14T17:31:36.715Z,99.90
2022-09-14T17:34:05.367Z,99.90
2022-09-14T17:36:33.587Z,99.90
2022-09-14T17:39:02.456Z,99.90
2022-09-14T17:41:31.526Z,99.90
2022-09-14T17:44:03.656Z,99.90
2022-09-14T17:46:31.716Z,99.90
2022-09-14T17:49:00.434Z,99.90
2022-09-14T17:51:29.210Z,99.90
2022-09-14T17:56:38.930Z,99.90
2022-09-14T17:59:16.570Z,99.90
2022-09-14T18:01:43.547Z,99.90
2022-09-14T18:04:12.298Z,99.90
2022-09-14T18:06:59.079Z,99.90
2022-09-14T18:09:25.974Z,99.90
2022-09-14T18:14:36.776Z,99.90
2022-09-14T18:17:03.902Z,99.90
2022-09-14T18:19:30.691Z,99.90
2022-09-14T18:21:57.561Z,99.90
2022-09-14T18:24:24.384Z,99.90
2022-09-14T18:26:51.284Z,99.90
2022-09-14T18:29:21.190Z,99.90
2022-09-14T18:31:48.127Z,99.90
2022-09-14T18:34:15.092Z,99.90
2022-09-14T18:36:41.913Z,99.90
2022-09-14T18:39:13.334Z,99.90
2022-09-14T18:41:40.376Z,99.90
2022-09-14T18:44:07.383Z,99.90
2022-09-14T18:46:34.298Z,99.90
2022-09-14T18:49:02.611Z,99.90
2022-09-14T18:51:31.533Z,99.90
2022-09-14T18:54:04.437Z,99.90
2022-09-14T18:56:33.867Z,99.90
2022-09-14T18:59:02.410Z,99.90
2022-09-14T19:01:32.739Z,99.90
2022-09-14T19:04:01.138Z,99.90
2022-09-14T19:06:28.585Z,99.90
2022-09-14T19:08:56.442Z,99.90
